CKX8 weather

Big River Airport
Big River, Saskatchewan, Canada

Public forecast

Using degrees Celsius for public forecast. Weather courtesy of forecast.io.

METAR (pilot weather report)

Closest report is Meadow Lake Airport, 56.2 nm (104.1 km) WNW. Retrieved 2019/04/25 12:25 UTC (1 hour ago):

CYLJ 251225Z 30014KT 15SM -RA FEW015 BKN045 03/M01 A3006 RMK CF1SC7 CF TR SLP198

TAF (pilot weather forecast)

Closest forecast is Prince Albert Glass Field, 60.6 nm (112.2 km) SE. Retrieved 2019/04/25 13:39 UTC (0 seconds ago):

TAF CYPA 251238Z 2513/2601 30015KT P6SM SCT020 BKN040 TEMPO 2513/2516 BKN020 OVC040 FM251600 31015G25KT P6SM SCT040 RMK NXT FCST BY 251900Z